sensor_id;sensor_type;location;lat;lon;timestamp;P1;durP1;ratioP1;P2;durP2;ratioP2
21297;SDS011;10808;48.010;11.326;2023-02-28T00:00:25;7.22;;;3.78;;
21297;SDS011;10808;48.010;11.326;2023-02-28T00:02:51;5.13;;;3.70;;
21297;SDS011;10808;48.010;11.326;2023-02-28T00:05:18;5.30;;;4.00;;
21297;SDS011;10808;48.010;11.326;2023-02-28T00:07:46;5.90;;;4.15;;
21297;SDS011;10808;48.010;11.326;2023-02-28T00:10:14;6.82;;;3.50;;
21297;SDS011;10808;48.010;11.326;2023-02-28T00:12:52;5.53;;;3.90;;
21297;SDS011;10808;48.010;11.326;2023-02-28T00:15:20;5.20;;;3.65;;
21297;SDS011;10808;48.010;11.326;2023-02-28T00:17:48;5.70;;;3.40;;
21297;SDS011;10808;48.010;11.326;2023-02-28T00:20:14;4.63;;;3.60;;
21297;SDS011;10808;48.010;11.326;2023-02-28T00:22:41;5.68;;;3.70;;
21297;SDS011;10808;48.010;11.326;2023-02-28T00:25:10;6.78;;;4.00;;
21297;SDS011;10808;48.010;11.326;2023-02-28T00:27:38;5.80;;;3.85;;
21297;SDS011;10808;48.010;11.326;2023-02-28T00:30:07;6.17;;;3.80;;
21297;SDS011;10808;48.010;11.326;2023-02-28T00:32:36;6.20;;;3.80;;
21297;SDS011;10808;48.010;11.326;2023-02-28T00:35:02;7.38;;;4.00;;
21297;SDS011;10808;48.010;11.326;2023-02-28T00:37:29;5.53;;;3.40;;
21297;SDS011;10808;48.010;11.326;2023-02-28T00:39:55;6.75;;;4.05;;
21297;SDS011;10808;48.010;11.326;2023-02-28T00:42:21;6.00;;;3.80;;
21297;SDS011;10808;48.010;11.326;2023-02-28T00:44:47;5.35;;;4.00;;
21297;SDS011;10808;48.010;11.326;2023-02-28T00:47:13;8.00;;;4.80;;
21297;SDS011;10808;48.010;11.326;2023-02-28T00:49:39;5.30;;;4.00;;
21297;SDS011;10808;48.010;11.326;2023-02-28T00:52:05;5.85;;;3.90;;
21297;SDS011;10808;48.010;11.326;2023-02-28T00:54:31;5.70;;;4.05;;
21297;SDS011;10808;48.010;11.326;2023-02-28T00:56:58;5.88;;;3.70;;
21297;SDS011;10808;48.010;11.326;2023-02-28T00:59:24;6.10;;;3.75;;
21297;SDS011;10808;48.010;11.326;2023-02-28T01:01:50;6.00;;;4.15;;
21297;SDS011;10808;48.010;11.326;2023-02-28T01:04:16;5.45;;;3.80;;
21297;SDS011;10808;48.010;11.326;2023-02-28T01:06:42;6.15;;;3.92;;
21297;SDS011;10808;48.010;11.326;2023-02-28T01:09:09;5.25;;;3.90;;
21297;SDS011;10808;48.010;11.326;2023-02-28T01:11:35;6.15;;;3.55;;
21297;SDS011;10808;48.010;11.326;2023-02-28T01:14:01;6.07;;;3.90;;
21297;SDS011;10808;48.010;11.326;2023-02-28T01:16:29;5.07;;;3.67;;
21297;SDS011;10808;48.010;11.326;2023-02-28T01:18:56;6.13;;;4.20;;
21297;SDS011;10808;48.010;11.326;2023-02-28T01:21:22;5.97;;;4.20;;
21297;SDS011;10808;48.010;11.326;2023-02-28T01:23:49;6.00;;;3.90;;
21297;SDS011;10808;48.010;11.326;2023-02-28T01:26:16;5.88;;;4.22;;
21297;SDS011;10808;48.010;11.326;2023-02-28T01:28:46;5.55;;;4.10;;
21297;SDS011;10808;48.010;11.326;2023-02-28T01:31:13;5.25;;;3.67;;
21297;SDS011;10808;48.010;11.326;2023-02-28T01:33:39;5.03;;;3.83;;
21297;SDS011;10808;48.010;11.326;2023-02-28T01:36:06;6.38;;;4.22;;
21297;SDS011;10808;48.010;11.326;2023-02-28T01:38:33;5.82;;;4.32;;
21297;SDS011;10808;48.010;11.326;2023-02-28T01:41:00;4.90;;;3.80;;
21297;SDS011;10808;48.010;11.326;2023-02-28T01:43:28;6.20;;;4.22;;
21297;SDS011;10808;48.010;11.326;2023-02-28T01:45:55;6.05;;;4.30;;
21297;SDS011;10808;48.010;11.326;2023-02-28T01:48:24;5.97;;;3.95;;
21297;SDS011;10808;48.010;11.326;2023-02-28T01:50:53;6.32;;;4.20;;
21297;SDS011;10808;48.010;11.326;2023-02-28T01:53:24;7.38;;;4.20;;
21297;SDS011;10808;48.010;11.326;2023-02-28T01:55:57;5.97;;;4.45;;
21297;SDS011;10808;48.010;11.326;2023-02-28T01:58:23;6.38;;;4.30;;
21297;SDS011;10808;48.010;11.326;2023-02-28T02:00:49;6.65;;;4.28;;
21297;SDS011;10808;48.010;11.326;2023-02-28T02:03:17;5.63;;;3.97;;
21297;SDS011;10808;48.010;11.326;2023-02-28T02:05:45;7.88;;;4.53;;
21297;SDS011;10808;48.010;11.326;2023-02-28T02:08:14;6.37;;;4.30;;
21297;SDS011;10808;48.010;11.326;2023-02-28T02:10:48;6.35;;;4.10;;
21297;SDS011;10808;48.010;11.326;2023-02-28T02:19:15;7.35;;;4.60;;
21297;SDS011;10808;48.010;11.326;2023-02-28T02:22:21;7.10;;;4.70;;
21297;SDS011;10808;48.010;11.326;2023-02-28T02:25:35;7.90;;;4.50;;
21297;SDS011;10808;48.010;11.326;2023-02-28T02:36:25;5.88;;;4.55;;
21297;SDS011;10808;48.010;11.326;2023-02-28T02:39:02;8.18;;;4.90;;
21297;SDS011;10808;48.010;11.326;2023-02-28T02:41:46;7.47;;;4.55;;
21297;SDS011;10808;48.010;11.326;2023-02-28T02:46:53;6.88;;;4.80;;
21297;SDS011;10808;48.010;11.326;2023-02-28T02:49:26;6.80;;;4.93;;
21297;SDS011;10808;48.010;11.326;2023-02-28T02:51:56;6.57;;;4.82;;
21297;SDS011;10808;48.010;11.326;2023-02-28T02:54:28;6.88;;;4.68;;
21297;SDS011;10808;48.010;11.326;2023-02-28T02:56:57;7.80;;;4.80;;
21297;SDS011;10808;48.010;11.326;2023-02-28T02:59:30;6.85;;;4.93;;
21297;SDS011;10808;48.010;11.326;2023-02-28T03:01:58;6.72;;;4.70;;
21297;SDS011;10808;48.010;11.326;2023-02-28T03:04:30;8.48;;;5.07;;
21297;SDS011;10808;48.010;11.326;2023-02-28T03:07:00;6.50;;;5.05;;
21297;SDS011;10808;48.010;11.326;2023-02-28T03:09:26;7.20;;;4.53;;
21297;SDS011;10808;48.010;11.326;2023-02-28T03:11:53;8.50;;;5.18;;
21297;SDS011;10808;48.010;11.326;2023-02-28T03:14:25;7.43;;;5.10;;
21297;SDS011;10808;48.010;11.326;2023-02-28T03:17:11;8.27;;;5.22;;
21297;SDS011;10808;48.010;11.326;2023-02-28T03:19:47;7.97;;;5.13;;
21297;SDS011;10808;48.010;11.326;2023-02-28T03:24:56;7.80;;;5.30;;
21297;SDS011;10808;48.010;11.326;2023-02-28T03:30:25;8.45;;;5.53;;
21297;SDS011;10808;48.010;11.326;2023-02-28T03:33:07;8.38;;;5.30;;
21297;SDS011;10808;48.010;11.326;2023-02-28T03:35:45;8.07;;;5.30;;
21297;SDS011;10808;48.010;11.326;2023-02-28T03:40:56;9.40;;;5.68;;
21297;SDS011;10808;48.010;11.326;2023-02-28T03:43:29;9.53;;;5.70;;
21297;SDS011;10808;48.010;11.326;2023-02-28T03:46:00;9.43;;;5.60;;
21297;SDS011;10808;48.010;11.326;2023-02-28T03:48:35;8.95;;;5.63;;
21297;SDS011;10808;48.010;11.326;2023-02-28T03:51:10;7.95;;;5.90;;
21297;SDS011;10808;48.010;11.326;2023-02-28T03:53:42;8.95;;;5.95;;
21297;SDS011;10808;48.010;11.326;2023-02-28T03:56:26;9.05;;;6.00;;
21297;SDS011;10808;48.010;11.326;2023-02-28T04:01:33;11.13;;;6.32;;
21297;SDS011;10808;48.010;11.326;2023-02-28T04:04:03;9.07;;;6.18;;
21297;SDS011;10808;48.010;11.326;2023-02-28T04:06:31;10.93;;;5.93;;
21297;SDS011;10808;48.010;11.326;2023-02-28T04:08:58;9.77;;;6.20;;
21297;SDS011;10808;48.010;11.326;2023-02-28T04:11:33;9.88;;;6.18;;
21297;SDS011;10808;48.010;11.326;2023-02-28T04:14:04;10.35;;;6.65;;
21297;SDS011;10808;48.010;11.326;2023-02-28T04:16:31;10.73;;;6.63;;
21297;SDS011;10808;48.010;11.326;2023-02-28T04:18:58;11.15;;;7.03;;
21297;SDS011;10808;48.010;11.326;2023-02-28T04:21:30;11.18;;;6.72;;
21297;SDS011;10808;48.010;11.326;2023-02-28T04:24:17;9.52;;;6.78;;
21297;SDS011;10808;48.010;11.326;2023-02-28T04:26:49;11.20;;;7.40;;
21297;SDS011;10808;48.010;11.326;2023-02-28T04:29:21;12.07;;;7.38;;
21297;SDS011;10808;48.010;11.326;2023-02-28T04:31:51;11.20;;;7.05;;
21297;SDS011;10808;48.010;11.326;2023-02-28T04:34:25;10.52;;;7.13;;
21297;SDS011;10808;48.010;11.326;2023-02-28T04:36:52;11.13;;;7.60;;
21297;SDS011;10808;48.010;11.326;2023-02-28T04:39:22;11.90;;;7.82;;
21297;SDS011;10808;48.010;11.326;2023-02-28T04:41:48;13.18;;;7.93;;
21297;SDS011;10808;48.010;11.326;2023-02-28T04:44:14;11.98;;;8.13;;
21297;SDS011;10808;48.010;11.326;2023-02-28T04:46:41;13.48;;;8.75;;
21297;SDS011;10808;48.010;11.326;2023-02-28T04:49:09;14.10;;;9.10;;
21297;SDS011;10808;48.010;11.326;2023-02-28T04:51:36;14.10;;;9.40;;
21297;SDS011;10808;48.010;11.326;2023-02-28T04:54:03;14.75;;;9.02;;
21297;SDS011;10808;48.010;11.326;2023-02-28T04:56:30;14.15;;;9.13;;
21297;SDS011;10808;48.010;11.326;2023-02-28T04:58:56;13.98;;;9.50;;
21297;SDS011;10808;48.010;11.326;2023-02-28T05:01:23;15.90;;;9.80;;
21297;SDS011;10808;48.010;11.326;2023-02-28T05:03:50;16.37;;;10.60;;
21297;SDS011;10808;48.010;11.326;2023-02-28T05:06:17;16.52;;;10.50;;
21297;SDS011;10808;48.010;11.326;2023-02-28T05:08:47;16.42;;;10.30;;
21297;SDS011;10808;48.010;11.326;2023-02-28T05:11:14;17.25;;;10.93;;
21297;SDS011;10808;48.010;11.326;2023-02-28T05:13:49;18.20;;;11.40;;
21297;SDS011;10808;48.010;11.326;2023-02-28T05:16:16;16.15;;;10.60;;
21297;SDS011;10808;48.010;11.326;2023-02-28T05:18:42;16.77;;;11.07;;
21297;SDS011;10808;48.010;11.326;2023-02-28T05:21:48;17.55;;;11.07;;
21297;SDS011;10808;48.010;11.326;2023-02-28T05:24:13;17.55;;;10.80;;
21297;SDS011;10808;48.010;11.326;2023-02-28T05:26:40;17.38;;;11.15;;
21297;SDS011;10808;48.010;11.326;2023-02-28T05:29:08;17.25;;;11.38;;
21297;SDS011;10808;48.010;11.326;2023-02-28T05:31:34;16.80;;;10.85;;
21297;SDS011;10808;48.010;11.326;2023-02-28T05:34:01;17.77;;;11.48;;
21297;SDS011;10808;48.010;11.326;2023-02-28T05:36:27;20.30;;;12.93;;
21297;SDS011;10808;48.010;11.326;2023-02-28T05:38:53;19.25;;;11.95;;
21297;SDS011;10808;48.010;11.326;2023-02-28T05:41:19;16.92;;;11.50;;
21297;SDS011;10808;48.010;11.326;2023-02-28T05:43:46;17.55;;;11.93;;
21297;SDS011;10808;48.010;11.326;2023-02-28T05:46:13;18.58;;;11.60;;
21297;SDS011;10808;48.010;11.326;2023-02-28T05:48:40;19.63;;;12.32;;
21297;SDS011;10808;48.010;11.326;2023-02-28T05:51:07;17.92;;;12.05;;
21297;SDS011;10808;48.010;11.326;2023-02-28T05:53:34;19.02;;;12.35;;
21297;SDS011;10808;48.010;11.326;2023-02-28T05:56:01;18.77;;;12.10;;
21297;SDS011;10808;48.010;11.326;2023-02-28T05:58:27;18.25;;;12.15;;
21297;SDS011;10808;48.010;11.326;2023-02-28T06:00:56;19.33;;;11.30;;
21297;SDS011;10808;48.010;11.326;2023-02-28T06:03:23;20.95;;;12.95;;
21297;SDS011;10808;48.010;11.326;2023-02-28T06:05:50;21.48;;;12.80;;
21297;SDS011;10808;48.010;11.326;2023-02-28T06:08:17;19.05;;;12.25;;
21297;SDS011;10808;48.010;11.326;2023-02-28T06:10:43;19.50;;;12.30;;
21297;SDS011;10808;48.010;11.326;2023-02-28T06:13:10;18.77;;;12.33;;
21297;SDS011;10808;48.010;11.326;2023-02-28T06:15:38;20.15;;;13.02;;
21297;SDS011;10808;48.010;11.326;2023-02-28T06:18:04;20.70;;;13.15;;
21297;SDS011;10808;48.010;11.326;2023-02-28T06:20:30;22.05;;;13.60;;
21297;SDS011;10808;48.010;11.326;2023-02-28T06:22:56;20.13;;;13.38;;
21297;SDS011;10808;48.010;11.326;2023-02-28T06:25:26;20.75;;;13.93;;
21297;SDS011;10808;48.010;11.326;2023-02-28T06:27:53;20.15;;;13.15;;
21297;SDS011;10808;48.010;11.326;2023-02-28T06:30:19;21.43;;;14.13;;
21297;SDS011;10808;48.010;11.326;2023-02-28T06:32:50;23.58;;;14.15;;
21297;SDS011;10808;48.010;11.326;2023-02-28T06:35:17;20.95;;;13.80;;
21297;SDS011;10808;48.010;11.326;2023-02-28T06:37:43;21.95;;;14.63;;
21297;SDS011;10808;48.010;11.326;2023-02-28T06:40:10;23.05;;;14.60;;
21297;SDS011;10808;48.010;11.326;2023-02-28T06:42:36;23.08;;;14.65;;
21297;SDS011;10808;48.010;11.326;2023-02-28T06:45:02;21.30;;;13.60;;
21297;SDS011;10808;48.010;11.326;2023-02-28T06:47:35;23.88;;;15.15;;
21297;SDS011;10808;48.010;11.326;2023-02-28T06:50:02;25.27;;;14.68;;
21297;SDS011;10808;48.010;11.326;2023-02-28T06:52:28;23.45;;;14.55;;
21297;SDS011;10808;48.010;11.326;2023-02-28T06:54:55;22.13;;;14.68;;
21297;SDS011;10808;48.010;11.326;2023-02-28T06:57:27;23.30;;;14.70;;
21297;SDS011;10808;48.010;11.326;2023-02-28T06:59:59;22.77;;;14.70;;
21297;SDS011;10808;48.010;11.326;2023-02-28T07:02:27;22.90;;;15.40;;
21297;SDS011;10808;48.010;11.326;2023-02-28T07:04:53;23.45;;;15.05;;
21297;SDS011;10808;48.010;11.326;2023-02-28T07:07:19;24.73;;;15.38;;
21297;SDS011;10808;48.010;11.326;2023-02-28T07:09:45;23.75;;;15.60;;
21297;SDS011;10808;48.010;11.326;2023-02-28T07:12:11;23.10;;;15.18;;
21297;SDS011;10808;48.010;11.326;2023-02-28T07:14:37;22.77;;;15.52;;
21297;SDS011;10808;48.010;11.326;2023-02-28T07:17:06;22.23;;;14.38;;
21297;SDS011;10808;48.010;11.326;2023-02-28T07:19:33;24.33;;;15.83;;
21297;SDS011;10808;48.010;11.326;2023-02-28T07:21:59;23.20;;;15.35;;
21297;SDS011;10808;48.010;11.326;2023-02-28T07:24:25;25.20;;;16.05;;
21297;SDS011;10808;48.010;11.326;2023-02-28T07:26:53;24.48;;;16.02;;
21297;SDS011;10808;48.010;11.326;2023-02-28T07:29:19;24.17;;;15.48;;
21297;SDS011;10808;48.010;11.326;2023-02-28T07:31:45;24.13;;;16.02;;
21297;SDS011;10808;48.010;11.326;2023-02-28T07:34:12;25.25;;;16.40;;
21297;SDS011;10808;48.010;11.326;2023-02-28T07:36:39;25.30;;;16.33;;
21297;SDS011;10808;48.010;11.326;2023-02-28T07:39:05;24.60;;;15.95;;
21297;SDS011;10808;48.010;11.326;2023-02-28T07:41:31;24.20;;;16.73;;
21297;SDS011;10808;48.010;11.326;2023-02-28T07:43:59;23.65;;;15.80;;
21297;SDS011;10808;48.010;11.326;2023-02-28T07:46:25;25.13;;;16.08;;
21297;SDS011;10808;48.010;11.326;2023-02-28T07:48:52;26.80;;;16.95;;
21297;SDS011;10808;48.010;11.326;2023-02-28T07:51:20;27.50;;;17.70;;
21297;SDS011;10808;48.010;11.326;2023-02-28T07:53:47;25.53;;;17.27;;
21297;SDS011;10808;48.010;11.326;2023-02-28T07:56:13;26.70;;;18.20;;
21297;SDS011;10808;48.010;11.326;2023-02-28T07:58:39;25.65;;;16.80;;
21297;SDS011;10808;48.010;11.326;2023-02-28T08:01:07;27.42;;;17.80;;
21297;SDS011;10808;48.010;11.326;2023-02-28T08:03:35;25.75;;;17.00;;
21297;SDS011;10808;48.010;11.326;2023-02-28T08:06:05;25.55;;;16.67;;
21297;SDS011;10808;48.010;11.326;2023-02-28T08:08:32;29.20;;;17.75;;
21297;SDS011;10808;48.010;11.326;2023-02-28T08:10:59;29.23;;;18.40;;
21297;SDS011;10808;48.010;11.326;2023-02-28T08:13:26;26.25;;;17.20;;
21297;SDS011;10808;48.010;11.326;2023-02-28T08:15:54;26.00;;;17.45;;
21297;SDS011;10808;48.010;11.326;2023-02-28T08:18:20;24.92;;;16.45;;
21297;SDS011;10808;48.010;11.326;2023-02-28T08:20:47;26.25;;;17.67;;
21297;SDS011;10808;48.010;11.326;2023-02-28T08:23:13;25.98;;;17.33;;
21297;SDS011;10808;48.010;11.326;2023-02-28T08:25:39;26.30;;;16.80;;
21297;SDS011;10808;48.010;11.326;2023-02-28T08:28:05;25.73;;;16.40;;
21297;SDS011;10808;48.010;11.326;2023-02-28T08:30:31;28.75;;;18.50;;
21297;SDS011;10808;48.010;11.326;2023-02-28T08:32:57;29.38;;;18.90;;
21297;SDS011;10808;48.010;11.326;2023-02-28T08:35:23;26.95;;;17.77;;
21297;SDS011;10808;48.010;11.326;2023-02-28T08:37:50;26.65;;;17.05;;
21297;SDS011;10808;48.010;11.326;2023-02-28T08:40:16;26.05;;;17.40;;
21297;SDS011;10808;48.010;11.326;2023-02-28T08:42:44;27.63;;;17.67;;
21297;SDS011;10808;48.010;11.326;2023-02-28T08:45:11;27.53;;;17.13;;
21297;SDS011;10808;48.010;11.326;2023-02-28T08:47:38;28.85;;;17.75;;
21297;SDS011;10808;48.010;11.326;2023-02-28T08:50:04;26.45;;;17.35;;
21297;SDS011;10808;48.010;11.326;2023-02-28T08:52:31;24.60;;;16.40;;
21297;SDS011;10808;48.010;11.326;2023-02-28T08:54:57;30.38;;;17.95;;
21297;SDS011;10808;48.010;11.326;2023-02-28T08:57:23;33.13;;;19.45;;
21297;SDS011;10808;48.010;11.326;2023-02-28T08:59:51;30.98;;;18.60;;
21297;SDS011;10808;48.010;11.326;2023-02-28T09:02:18;22.30;;;15.20;;
21297;SDS011;10808;48.010;11.326;2023-02-28T09:04:44;34.03;;;22.48;;
21297;SDS011;10808;48.010;11.326;2023-02-28T09:07:11;29.23;;;18.52;;
21297;SDS011;10808;48.010;11.326;2023-02-28T09:09:37;33.15;;;19.50;;
21297;SDS011;10808;48.010;11.326;2023-02-28T09:12:22;31.75;;;18.05;;
21297;SDS011;10808;48.010;11.326;2023-02-28T09:14:49;29.75;;;19.67;;
21297;SDS011;10808;48.010;11.326;2023-02-28T09:17:16;33.05;;;24.05;;
21297;SDS011;10808;48.010;11.326;2023-02-28T09:19:42;23.63;;;16.40;;
21297;SDS011;10808;48.010;11.326;2023-02-28T09:22:09;27.92;;;19.52;;
21297;SDS011;10808;48.010;11.326;2023-02-28T09:24:36;25.13;;;18.38;;
21297;SDS011;10808;48.010;11.326;2023-02-28T09:27:03;25.27;;;17.42;;
21297;SDS011;10808;48.010;11.326;2023-02-28T09:29:33;24.85;;;17.15;;
21297;SDS011;10808;48.010;11.326;2023-02-28T09:31:59;35.83;;;23.67;;
21297;SDS011;10808;48.010;11.326;2023-02-28T09:34:26;36.45;;;22.23;;
21297;SDS011;10808;48.010;11.326;2023-02-28T09:36:52;42.20;;;26.80;;
21297;SDS011;10808;48.010;11.326;2023-02-28T09:39:20;30.45;;;20.48;;
21297;SDS011;10808;48.010;11.326;2023-02-28T09:41:48;25.40;;;17.40;;
21297;SDS011;10808;48.010;11.326;2023-02-28T09:47:12;25.08;;;17.02;;
21297;SDS011;10808;48.010;11.326;2023-02-28T09:49:59;25.20;;;16.95;;
21297;SDS011;10808;48.010;11.326;2023-02-28T09:52:34;23.17;;;16.45;;
21297;SDS011;10808;48.010;11.326;2023-02-28T09:55:17;23.65;;;16.65;;
21297;SDS011;10808;48.010;11.326;2023-02-28T09:57:59;25.60;;;16.83;;
21297;SDS011;10808;48.010;11.326;2023-02-28T10:00:29;23.13;;;16.30;;
21297;SDS011;10808;48.010;11.326;2023-02-28T10:03:04;23.92;;;17.20;;
21297;SDS011;10808;48.010;11.326;2023-02-28T10:05:51;23.88;;;16.73;;
21297;SDS011;10808;48.010;11.326;2023-02-28T10:08:27;24.88;;;17.33;;
21297;SDS011;10808;48.010;11.326;2023-02-28T10:10:57;22.27;;;16.65;;
21297;SDS011;10808;48.010;11.326;2023-02-28T10:16:53;24.15;;;16.83;;
21297;SDS011;10808;48.010;11.326;2023-02-28T10:19:17;23.30;;;16.58;;
21297;SDS011;10808;48.010;11.326;2023-02-28T10:21:56;21.90;;;15.63;;
21297;SDS011;10808;48.010;11.326;2023-02-28T10:29:48;23.65;;;15.82;;
21297;SDS011;10808;48.010;11.326;2023-02-28T10:32:17;22.90;;;16.35;;
21297;SDS011;10808;48.010;11.326;2023-02-28T10:34:45;22.15;;;16.02;;
21297;SDS011;10808;48.010;11.326;2023-02-28T10:37:24;22.57;;;16.00;;
21297;SDS011;10808;48.010;11.326;2023-02-28T10:39:50;22.33;;;15.38;;
21297;SDS011;10808;48.010;11.326;2023-02-28T10:42:19;23.58;;;15.90;;
21297;SDS011;10808;48.010;11.326;2023-02-28T10:47:51;23.05;;;16.55;;
21297;SDS011;10808;48.010;11.326;2023-02-28T10:50:27;22.85;;;15.40;;
21297;SDS011;10808;48.010;11.326;2023-02-28T10:53:10;21.65;;;16.25;;
21297;SDS011;10808;48.010;11.326;2023-02-28T10:55:40;22.53;;;16.00;;
21297;SDS011;10808;48.010;11.326;2023-02-28T10:58:20;22.92;;;16.00;;
21297;SDS011;10808;48.010;11.326;2023-02-28T11:00:51;22.80;;;16.15;;
21297;SDS011;10808;48.010;11.326;2023-02-28T11:03:25;23.23;;;16.27;;
21297;SDS011;10808;48.010;11.326;2023-02-28T11:05:53;23.45;;;16.00;;
21297;SDS011;10808;48.010;11.326;2023-02-28T11:08:20;22.87;;;16.50;;
21297;SDS011;10808;48.010;11.326;2023-02-28T11:10:47;23.77;;;16.58;;
21297;SDS011;10808;48.010;11.326;2023-02-28T11:13:20;22.48;;;15.93;;
21297;SDS011;10808;48.010;11.326;2023-02-28T11:15:53;22.70;;;15.75;;
21297;SDS011;10808;48.010;11.326;2023-02-28T11:21:32;22.55;;;16.60;;
21297;SDS011;10808;48.010;11.326;2023-02-28T11:24:22;22.23;;;16.70;;
21297;SDS011;10808;48.010;11.326;2023-02-28T11:26:55;22.63;;;16.50;;
21297;SDS011;10808;48.010;11.326;2023-02-28T11:29:23;23.95;;;15.52;;
21297;SDS011;10808;48.010;11.326;2023-02-28T11:34:42;28.38;;;19.67;;
21297;SDS011;10808;48.010;11.326;2023-02-28T11:37:11;101.30;;;52.40;;
21297;SDS011;10808;48.010;11.326;2023-02-28T11:39:39;25.30;;;17.88;;
21297;SDS011;10808;48.010;11.326;2023-02-28T11:47:33;23.40;;;16.70;;
21297;SDS011;10808;48.010;11.326;2023-02-28T11:53:26;87.85;;;39.42;;
21297;SDS011;10808;48.010;11.326;2023-02-28T12:04:52;88.38;;;39.63;;
21297;SDS011;10808;48.010;11.326;2023-02-28T12:07:49;74.55;;;42.15;;
21297;SDS011;10808;48.010;11.326;2023-02-28T12:10:57;24.80;;;17.73;;
21297;SDS011;10808;48.010;11.326;2023-02-28T12:13:45;24.33;;;17.77;;
21297;SDS011;10808;48.010;11.326;2023-02-28T12:16:25;24.38;;;16.80;;
21297;SDS011;10808;48.010;11.326;2023-02-28T12:27:13;21.92;;;15.70;;
21297;SDS011;10808;48.010;11.326;2023-02-28T12:29:47;20.90;;;15.55;;
21297;SDS011;10808;48.010;11.326;2023-02-28T12:34:55;20.08;;;14.82;;
21297;SDS011;10808;48.010;11.326;2023-02-28T12:37:37;21.13;;;14.93;;
21297;SDS011;10808;48.010;11.326;2023-02-28T12:40:13;23.13;;;15.02;;
21297;SDS011;10808;48.010;11.326;2023-02-28T12:42:51;18.98;;;14.60;;
21297;SDS011;10808;48.010;11.326;2023-02-28T12:45:31;23.33;;;15.82;;
21297;SDS011;10808;48.010;11.326;2023-02-28T12:48:25;22.17;;;15.70;;
21297;SDS011;10808;48.010;11.326;2023-02-28T12:51:03;21.60;;;15.38;;
21297;SDS011;10808;48.010;11.326;2023-02-28T12:56:42;19.00;;;14.85;;
21297;SDS011;10808;48.010;11.326;2023-02-28T12:59:10;20.52;;;15.18;;
21297;SDS011;10808;48.010;11.326;2023-02-28T13:02:09;21.40;;;15.07;;
21297;SDS011;10808;48.010;11.326;2023-02-28T13:04:55;19.90;;;14.95;;
21297;SDS011;10808;48.010;11.326;2023-02-28T13:10:15;21.42;;;15.23;;
21297;SDS011;10808;48.010;11.326;2023-02-28T13:12:54;19.77;;;15.32;;
21297;SDS011;10808;48.010;11.326;2023-02-28T13:15:27;20.38;;;14.82;;
21297;SDS011;10808;48.010;11.326;2023-02-28T13:17:55;20.35;;;15.82;;
21297;SDS011;10808;48.010;11.326;2023-02-28T13:20:24;23.95;;;16.15;;
21297;SDS011;10808;48.010;11.326;2023-02-28T13:22:58;22.38;;;15.88;;
21297;SDS011;10808;48.010;11.326;2023-02-28T13:28:13;22.40;;;15.98;;
21297;SDS011;10808;48.010;11.326;2023-02-28T13:31:15;22.60;;;15.95;;
21297;SDS011;10808;48.010;11.326;2023-02-28T13:38:50;18.95;;;14.98;;
21297;SDS011;10808;48.010;11.326;2023-02-28T13:44:01;20.98;;;15.20;;
21297;SDS011;10808;48.010;11.326;2023-02-28T13:46:34;20.85;;;15.82;;
21297;SDS011;10808;48.010;11.326;2023-02-28T13:51:48;19.70;;;15.05;;
21297;SDS011;10808;48.010;11.326;2023-02-28T14:02:46;18.90;;;14.63;;
21297;SDS011;10808;48.010;11.326;2023-02-28T14:05:24;20.08;;;14.55;;
21297;SDS011;10808;48.010;11.326;2023-02-28T14:07:58;19.85;;;14.98;;
21297;SDS011;10808;48.010;11.326;2023-02-28T14:10:30;19.30;;;15.10;;
21297;SDS011;10808;48.010;11.326;2023-02-28T14:13:11;20.77;;;15.40;;
21297;SDS011;10808;48.010;11.326;2023-02-28T14:15:59;20.33;;;15.48;;
21297;SDS011;10808;48.010;11.326;2023-02-28T14:18:32;22.15;;;15.10;;
21297;SDS011;10808;48.010;11.326;2023-02-28T14:23:43;21.35;;;15.38;;
21297;SDS011;10808;48.010;11.326;2023-02-28T14:29:12;20.53;;;15.20;;
21297;SDS011;10808;48.010;11.326;2023-02-28T14:32:30;21.47;;;15.10;;
21297;SDS011;10808;48.010;11.326;2023-02-28T14:37:16;19.67;;;14.82;;
21297;SDS011;10808;48.010;11.326;2023-02-28T14:39:50;20.83;;;15.27;;
21297;SDS011;10808;48.010;11.326;2023-02-28T14:44:56;20.88;;;14.68;;
21297;SDS011;10808;48.010;11.326;2023-02-28T14:47:22;19.47;;;15.27;;
21297;SDS011;10808;48.010;11.326;2023-02-28T14:49:51;21.60;;;16.13;;
21297;SDS011;10808;48.010;11.326;2023-02-28T14:52:19;18.92;;;14.95;;
21297;SDS011;10808;48.010;11.326;2023-02-28T14:54:51;19.10;;;14.57;;
21297;SDS011;10808;48.010;11.326;2023-02-28T14:57:27;22.58;;;15.13;;
21297;SDS011;10808;48.010;11.326;2023-02-28T14:59:59;22.58;;;15.38;;
21297;SDS011;10808;48.010;11.326;2023-02-28T15:02:36;21.40;;;15.15;;
21297;SDS011;10808;48.010;11.326;2023-02-28T15:07:35;19.00;;;15.10;;
21297;SDS011;10808;48.010;11.326;2023-02-28T15:12:50;20.97;;;14.63;;
21297;SDS011;10808;48.010;11.326;2023-02-28T15:15:24;21.30;;;15.95;;
21297;SDS011;10808;48.010;11.326;2023-02-28T15:18:15;19.25;;;15.55;;
21297;SDS011;10808;48.010;11.326;2023-02-28T15:20:53;19.65;;;15.02;;
21297;SDS011;10808;48.010;11.326;2023-02-28T15:23:20;20.70;;;14.98;;
21297;SDS011;10808;48.010;11.326;2023-02-28T15:25:47;20.83;;;15.80;;
21297;SDS011;10808;48.010;11.326;2023-02-28T15:28:16;19.35;;;15.43;;
21297;SDS011;10808;48.010;11.326;2023-02-28T15:33:21;20.80;;;15.88;;
21297;SDS011;10808;48.010;11.326;2023-02-28T15:35:51;23.70;;;16.30;;
21297;SDS011;10808;48.010;11.326;2023-02-28T15:38:28;22.05;;;16.35;;
21297;SDS011;10808;48.010;11.326;2023-02-28T15:40:55;21.30;;;16.13;;
21297;SDS011;10808;48.010;11.326;2023-02-28T15:43:30;24.13;;;16.67;;
21297;SDS011;10808;48.010;11.326;2023-02-28T15:46:07;21.80;;;15.55;;
21297;SDS011;10808;48.010;11.326;2023-02-28T15:48:47;21.13;;;15.15;;
21297;SDS011;10808;48.010;11.326;2023-02-28T15:51:22;21.27;;;15.27;;
21297;SDS011;10808;48.010;11.326;2023-02-28T15:53:57;22.93;;;15.67;;
21297;SDS011;10808;48.010;11.326;2023-02-28T15:56:27;23.13;;;16.42;;
21297;SDS011;10808;48.010;11.326;2023-02-28T15:58:55;43.38;;;25.17;;
21297;SDS011;10808;48.010;11.326;2023-02-28T16:01:26;177.02;;;64.53;;
21297;SDS011;10808;48.010;11.326;2023-02-28T16:03:57;50.95;;;29.08;;
21297;SDS011;10808;48.010;11.326;2023-02-28T16:06:34;90.15;;;37.95;;
21297;SDS011;10808;48.010;11.326;2023-02-28T16:09:21;23.77;;;16.40;;
21297;SDS011;10808;48.010;11.326;2023-02-28T16:11:48;30.38;;;22.58;;
21297;SDS011;10808;48.010;11.326;2023-02-28T16:14:17;27.60;;;18.63;;
21297;SDS011;10808;48.010;11.326;2023-02-28T16:16:46;26.87;;;19.07;;
21297;SDS011;10808;48.010;11.326;2023-02-28T16:19:14;25.13;;;17.60;;
21297;SDS011;10808;48.010;11.326;2023-02-28T16:21:41;24.60;;;16.83;;
21297;SDS011;10808;48.010;11.326;2023-02-28T16:24:07;23.63;;;16.95;;
21297;SDS011;10808;48.010;11.326;2023-02-28T16:26:33;24.77;;;16.13;;
21297;SDS011;10808;48.010;11.326;2023-02-28T16:29:02;24.23;;;16.90;;
21297;SDS011;10808;48.010;11.326;2023-02-28T16:31:29;22.27;;;16.05;;
21297;SDS011;10808;48.010;11.326;2023-02-28T16:33:56;24.25;;;16.27;;
21297;SDS011;10808;48.010;11.326;2023-02-28T16:36:23;25.80;;;17.05;;
21297;SDS011;10808;48.010;11.326;2023-02-28T16:38:53;22.33;;;16.38;;